createdAt,value
2018-11-02T00:00:34.428Z,10.26
2018-11-02T00:01:34.400Z,10.22
2018-11-02T00:02:34.399Z,10.25
2018-11-02T00:03:34.378Z,10.30
2018-11-02T00:04:34.379Z,10.33
2018-11-02T00:05:34.363Z,10.23
2018-11-02T00:06:34.353Z,10.35
2018-11-02T00:07:34.357Z,10.30
2018-11-02T00:08:34.374Z,10.28
2018-11-02T00:09:34.352Z,10.25
2018-11-02T00:10:34.322Z,10.25
2018-11-02T00:11:34.324Z,10.41
2018-11-02T00:12:34.398Z,10.26
2018-11-02T00:13:34.300Z,10.35
2018-11-02T00:14:34.285Z,10.26
2018-11-02T00:15:34.284Z,10.31
2018-11-02T00:16:34.275Z,10.25
2018-11-02T00:17:34.263Z,10.33
2018-11-02T00:18:34.250Z,10.31
2018-11-02T00:19:34.248Z,10.28
2018-11-02T00:20:34.234Z,10.26
2018-11-02T00:21:34.231Z,10.26
2018-11-02T00:22:34.234Z,10.30
2018-11-02T00:23:34.206Z,10.28
2018-11-02T00:24:34.213Z,10.48
2018-11-02T00:25:34.192Z,10.28
2018-11-02T00:26:34.183Z,10.28
2018-11-02T00:27:34.176Z,10.31
2018-11-02T00:28:34.173Z,10.31
2018-11-02T00:29:34.167Z,10.23
2018-11-02T00:30:34.150Z,10.25
2018-11-02T00:31:34.144Z,10.28
2018-11-02T00:32:34.135Z,10.23
2018-11-02T00:33:34.129Z,10.26
2018-11-02T00:34:34.121Z,10.30
2018-11-02T00:35:34.111Z,10.38
2018-11-02T00:36:34.101Z,10.34
2018-11-02T00:37:34.092Z,10.33
2018-11-02T00:38:34.086Z,10.40
2018-11-02T00:39:34.073Z,10.37
2018-11-02T00:40:34.062Z,10.41
2018-11-02T00:41:34.057Z,10.40
2018-11-02T00:42:34.054Z,10.37
2018-11-02T00:43:34.038Z,10.40
2018-11-02T00:44:34.033Z,10.41
2018-11-02T00:45:34.042Z,10.42
2018-11-02T00:46:34.012Z,10.53
2018-11-02T00:47:34.008Z,10.40
2018-11-02T00:48:34.006Z,10.51
2018-11-02T00:49:33.988Z,10.53
2018-11-02T00:50:34.491Z,10.49
2018-11-02T00:51:33.965Z,10.49
2018-11-02T00:52:33.963Z,10.48
2018-11-02T00:53:33.956Z,10.41
2018-11-02T00:54:33.941Z,10.46
2018-11-02T00:55:34.486Z,10.49
2018-11-02T00:56:33.957Z,10.51
2018-11-02T00:57:33.919Z,10.53
2018-11-02T00:58:33.907Z,10.44
2018-11-02T00:59:33.932Z,10.51
2018-11-02T01:00:33.897Z,10.51
2018-11-02T01:01:33.884Z,10.56
2018-11-02T01:02:33.890Z,10.57
2018-11-02T01:03:33.865Z,10.54
2018-11-02T01:04:33.928Z,10.53
2018-11-02T01:05:33.914Z,10.60
2018-11-02T01:06:33.839Z,10.60
2018-11-02T01:07:33.836Z,10.59
2018-11-02T01:08:33.850Z,10.63
2018-11-02T01:09:33.813Z,10.59
2018-11-02T01:10:33.806Z,10.61
2018-11-02T01:11:33.796Z,10.59
2018-11-02T01:12:33.797Z,10.53
2018-11-02T01:13:33.796Z,10.54
2018-11-02T01:14:33.771Z,10.59
2018-11-02T01:15:33.783Z,10.61
2018-11-02T01:16:33.808Z,10.67
2018-11-02T01:17:33.744Z,10.61
2018-11-02T01:18:33.740Z,10.67
2018-11-02T01:19:33.729Z,10.68
2018-11-02T01:20:33.737Z,10.68
2018-11-02T01:21:33.751Z,10.56
2018-11-02T01:22:33.713Z,10.61
2018-11-02T01:23:33.698Z,10.74
2018-11-02T01:24:33.687Z,10.67
2018-11-02T01:25:33.679Z,10.60
2018-11-02T01:26:33.674Z,10.54
2018-11-02T01:27:33.666Z,10.64
2018-11-02T01:28:33.657Z,10.67
2018-11-02T01:29:33.652Z,10.60
2018-11-02T01:30:33.641Z,10.61
2018-11-02T01:31:33.629Z,10.64
2018-11-02T01:32:33.620Z,10.56
2018-11-02T01:33:33.613Z,10.59
2018-11-02T01:34:33.613Z,10.56
2018-11-02T01:35:33.599Z,10.60
2018-11-02T01:36:33.587Z,10.57
2018-11-02T01:37:33.589Z,10.59
2018-11-02T01:38:33.570Z,10.53
2018-11-02T01:39:33.563Z,10.51
2018-11-02T01:40:33.552Z,10.42
2018-11-02T01:41:33.541Z,10.41
2018-11-02T01:42:33.564Z,10.37
2018-11-02T01:43:33.538Z,10.31
2018-11-02T01:44:33.524Z,10.33
2018-11-02T01:45:33.512Z,10.25
2018-11-02T01:46:33.504Z,10.33
2018-11-02T01:47:33.497Z,10.31
2018-11-02T01:48:33.495Z,10.31
2018-11-02T01:49:33.484Z,10.25
2018-11-02T01:50:33.505Z,10.22
2018-11-02T01:51:33.468Z,10.23
2018-11-02T01:52:33.462Z,10.22
2018-11-02T01:53:33.441Z,10.20
2018-11-02T01:54:33.433Z,10.28
2018-11-02T01:55:33.432Z,10.31
2018-11-02T01:56:33.469Z,10.34
2018-11-02T01:57:33.414Z,10.31
2018-11-02T01:58:33.403Z,10.26
2018-11-02T01:59:33.393Z,10.35
2018-11-02T02:00:33.380Z,10.38
2018-11-02T02:01:33.388Z,10.28
2018-11-02T02:02:33.378Z,10.22
2018-11-02T02:03:33.377Z,10.28
2018-11-02T02:04:33.354Z,10.31
2018-11-02T02:05:33.341Z,10.31
2018-11-02T02:06:33.336Z,10.30
2018-11-02T02:07:33.326Z,10.34
2018-11-02T02:08:33.316Z,10.37
2018-11-02T02:09:33.313Z,10.31
2018-11-02T02:10:33.300Z,10.28
2018-11-02T02:11:33.306Z,10.28
2018-11-02T02:12:33.288Z,10.30
2018-11-02T02:13:33.286Z,10.28
2018-11-02T02:14:33.269Z,10.25
2018-11-02T02:15:33.253Z,10.28
2018-11-02T02:16:33.264Z,10.33
2018-11-02T02:17:33.244Z,10.28
2018-11-02T02:18:33.236Z,10.30
2018-11-02T02:19:33.237Z,10.30
2018-11-02T02:20:33.219Z,10.30
2018-11-02T02:21:33.204Z,10.33
2018-11-02T02:22:33.201Z,10.31
2018-11-02T02:23:33.189Z,10.37
2018-11-02T02:24:33.180Z,10.42
2018-11-02T02:25:33.177Z,10.35
2018-11-02T02:26:33.164Z,10.26
2018-11-02T02:27:33.155Z,10.28
2018-11-02T02:28:33.145Z,10.41
2018-11-02T02:29:33.138Z,10.31
2018-11-02T02:30:33.129Z,10.25
2018-11-02T02:31:33.122Z,10.37
2018-11-02T02:32:33.114Z,10.34
2018-11-02T02:33:33.105Z,10.30
2018-11-02T02:34:33.104Z,10.34
2018-11-02T02:35:33.093Z,10.33
2018-11-02T02:36:33.084Z,10.33
2018-11-02T02:37:33.099Z,10.33
2018-11-02T02:38:33.079Z,10.23
2018-11-02T02:39:33.057Z,10.35
2018-11-02T02:40:33.061Z,10.40
2018-11-02T02:41:33.037Z,10.34
2018-11-02T02:42:33.032Z,10.30
2018-11-02T02:43:33.019Z,10.30
2018-11-02T02:44:33.018Z,10.26
2018-11-02T02:45:33.017Z,10.30
2018-11-02T02:46:32.995Z,10.26
2018-11-02T02:47:32.991Z,10.34
2018-11-02T02:48:32.983Z,10.34
2018-11-02T02:49:32.996Z,10.35
2018-11-02T02:50:32.962Z,10.40
2018-11-02T02:51:32.949Z,10.26
2018-11-02T02:52:32.944Z,10.34
2018-11-02T02:53:32.939Z,10.37
2018-11-02T02:54:32.928Z,10.34
2018-11-02T02:55:32.935Z,10.31
2018-11-02T02:56:32.926Z,10.35
2018-11-02T02:57:32.901Z,10.34
2018-11-02T02:58:32.893Z,10.40
2018-11-02T02:59:32.882Z,10.46
2018-11-02T03:00:32.884Z,10.35
2018-11-02T03:01:32.871Z,10.40
2018-11-02T03:02:32.861Z,10.41
2018-11-02T03:03:32.868Z,10.51
2018-11-02T03:04:32.842Z,10.48
2018-11-02T03:05:32.837Z,10.49
2018-11-02T03:06:32.826Z,10.48
2018-11-02T03:07:32.824Z,10.41
2018-11-02T03:08:32.813Z,10.48
2018-11-02T03:09:32.807Z,10.44
2018-11-02T03:10:32.820Z,10.49
2018-11-02T03:11:32.787Z,10.46
2018-11-02T03:12:32.778Z,10.48
2018-11-02T03:13:32.776Z,10.48
2018-11-02T03:14:32.755Z,10.41
2018-11-02T03:15:32.753Z,10.49
2018-11-02T03:16:32.761Z,10.44
2018-11-02T03:17:32.741Z,10.44
2018-11-02T03:18:32.853Z,10.44
2018-11-02T03:19:32.718Z,10.44
2018-11-02T03:20:32.708Z,10.42
2018-11-02T03:21:32.701Z,10.51
2018-11-02T03:22:32.762Z,10.53
2018-11-02T03:23:32.688Z,10.53
2018-11-02T03:24:32.678Z,10.42
2018-11-02T03:25:32.672Z,10.48
2018-11-02T03:26:32.655Z,10.60
2018-11-02T03:27:32.655Z,10.56
2018-11-02T03:28:32.640Z,10.59
2018-11-02T03:29:32.631Z,10.54
2018-11-02T03:30:32.638Z,10.59
2018-11-02T03:31:32.640Z,10.53
2018-11-02T03:32:32.607Z,10.59
2018-11-02T03:33:32.597Z,10.59
2018-11-02T03:34:32.605Z,10.56
2018-11-02T03:35:33.556Z,10.61
2018-11-02T03:36:32.575Z,10.57
2018-11-02T03:37:32.561Z,10.57
2018-11-02T03:38:32.556Z,10.54
2018-11-02T03:39:32.542Z,10.60
2018-11-02T03:40:32.542Z,10.61
2018-11-02T03:41:32.529Z,10.59
2018-11-02T03:42:32.519Z,10.57
2018-11-02T03:43:32.521Z,10.53
2018-11-02T03:44:32.508Z,10.42
2018-11-02T03:45:32.498Z,10.46
2018-11-02T03:46:32.500Z,10.56
2018-11-02T03:47:32.480Z,10.42
2018-11-02T03:48:32.474Z,10.56
2018-11-02T03:49:32.933Z,10.53
2018-11-02T03:50:32.592Z,10.56
2018-11-02T03:51:32.472Z,10.59
2018-11-02T03:52:32.436Z,10.56
2018-11-02T03:53:32.450Z,10.54
2018-11-02T03:54:32.413Z,10.57
2018-11-02T03:55:32.413Z,10.53
2018-11-02T03:56:32.501Z,10.46
2018-11-02T03:57:32.409Z,10.42
2018-11-02T03:58:32.379Z,10.44
2018-11-02T03:59:32.406Z,10.44
2018-11-02T04:00:34.007Z,10.51
2018-11-02T04:01:32.363Z,10.54
2018-11-02T04:02:32.349Z,10.53
2018-11-02T04:03:32.343Z,10.46
2018-11-02T04:04:32.329Z,10.49
2018-11-02T04:05:32.358Z,10.51
2018-11-02T04:06:32.333Z,10.44
2018-11-02T04:07:32.337Z,10.42
2018-11-02T04:08:32.300Z,10.49
2018-11-02T04:09:32.368Z,10.41
2018-11-02T04:10:32.293Z,10.46
2018-11-02T04:11:32.274Z,10.40
2018-11-02T04:12:32.271Z,10.40
2018-11-02T04:13:32.258Z,10.46
2018-11-02T04:14:32.248Z,10.48
2018-11-02T04:15:32.244Z,10.42
2018-11-02T04:16:32.233Z,10.42
2018-11-02T04:17:32.221Z,10.49
2018-11-02T04:18:32.213Z,10.48
2018-11-02T04:19:32.227Z,10.44
2018-11-02T04:20:32.247Z,10.44
2018-11-02T04:21:32.184Z,10.46
2018-11-02T04:22:32.181Z,10.54
2018-11-02T04:23:32.187Z,10.49
2018-11-02T04:24:32.179Z,10.49
2018-11-02T04:25:32.157Z,10.49
2018-11-02T04:26:32.144Z,10.51
2018-11-02T04:27:32.136Z,10.53
2018-11-02T04:28:32.130Z,10.48
2018-11-02T04:29:32.116Z,10.48
2018-11-02T04:30:32.115Z,10.42
2018-11-02T04:31:32.099Z,10.49
2018-11-02T04:32:32.091Z,10.53
2018-11-02T04:33:32.088Z,10.42
2018-11-02T04:34:32.089Z,10.53
2018-11-02T04:35:32.074Z,10.44
2018-11-02T04:36:32.064Z,10.40
2018-11-02T04:37:32.061Z,10.46
2018-11-02T04:38:32.046Z,10.46
2018-11-02T04:39:32.031Z,10.46
2018-11-02T04:40:32.033Z,10.46
2018-11-02T04:41:32.017Z,10.42
2018-11-02T04:42:32.013Z,10.44
2018-11-02T04:43:32.037Z,10.46
2018-11-02T04:44:31.992Z,10.49
2018-11-02T04:45:31.981Z,10.38
2018-11-02T04:46:32.000Z,10.51
2018-11-02T04:47:31.969Z,10.48
2018-11-02T04:48:31.957Z,10.37
2018-11-02T04:49:31.969Z,10.34
2018-11-02T04:50:31.948Z,10.30
2018-11-02T04:51:31.932Z,10.25
2018-11-02T04:52:31.970Z,10.30
2018-11-02T04:53:31.919Z,10.25
2018-11-02T04:54:31.909Z,10.28
2018-11-02T04:55:31.911Z,10.33
2018-11-02T04:56:31.899Z,10.34
2018-11-02T04:57:31.892Z,10.23
2018-11-02T04:58:31.873Z,10.22
2018-11-02T04:59:31.862Z,10.22
2018-11-02T05:00:31.856Z,10.17
2018-11-02T05:01:31.854Z,10.23
2018-11-02T05:02:31.845Z,10.23
2018-11-02T05:03:31.852Z,10.22
2018-11-02T05:04:31.820Z,10.23
2018-11-02T05:05:31.813Z,10.25
2018-11-02T05:06:31.820Z,10.19
2018-11-02T05:07:31.797Z,10.23
2018-11-02T05:08:31.789Z,10.15
2018-11-02T05:09:31.776Z,10.30
2018-11-02T05:10:31.783Z,10.22
2018-11-02T05:11:31.864Z,10.20
2018-11-02T05:12:31.762Z,10.16
2018-11-02T05:13:31.748Z,10.17
2018-11-02T05:14:31.748Z,10.17
2018-11-02T05:15:31.726Z,10.17
2018-11-02T05:16:31.717Z,10.22
2018-11-02T05:17:31.731Z,10.17
2018-11-02T05:18:31.703Z,10.20
2018-11-02T05:19:31.697Z,10.20
2018-11-02T05:20:31.689Z,10.10
2018-11-02T05:21:31.682Z,10.19
2018-11-02T05:22:31.671Z,10.16
2018-11-02T05:23:31.664Z,10.15
2018-11-02T05:24:31.675Z,10.10
2018-11-02T05:25:31.696Z,10.02
2018-11-02T05:26:31.635Z,9.99
2018-11-02T05:27:31.629Z,10.01
2018-11-02T05:28:31.620Z,10.07
2018-11-02T05:29:31.619Z,9.97
2018-11-02T05:30:31.612Z,9.95
2018-11-02T05:31:31.613Z,9.95
2018-11-02T05:32:31.591Z,9.98
2018-11-02T05:33:31.578Z,9.95
2018-11-02T05:34:31.567Z,10.01
2018-11-02T05:35:31.567Z,9.98
2018-11-02T05:36:31.613Z,9.94
2018-11-02T05:37:31.553Z,9.95
2018-11-02T05:38:31.543Z,9.98
2018-11-02T05:39:31.549Z,9.86
2018-11-02T05:40:31.511Z,9.95
2018-11-02T05:41:32.104Z,9.99
2018-11-02T05:42:31.494Z,9.95
2018-11-02T05:43:31.503Z,9.98
2018-11-02T05:44:31.471Z,9.92
2018-11-02T05:45:31.522Z,9.86
2018-11-02T05:46:31.468Z,9.82
2018-11-02T05:47:31.452Z,9.87
2018-11-02T05:48:31.450Z,9.94
2018-11-02T05:49:31.428Z,9.89
2018-11-02T05:50:31.439Z,9.92
2018-11-02T05:51:31.417Z,9.84
2018-11-02T05:52:31.424Z,9.82
2018-11-02T05:53:31.397Z,9.82
2018-11-02T05:54:31.429Z,9.91
2018-11-02T05:55:31.378Z,9.82
2018-11-02T05:56:31.381Z,9.86
2018-11-02T05:57:31.358Z,9.80
2018-11-02T05:58:31.358Z,9.76
2018-11-02T05:59:31.352Z,9.82
2018-11-02T06:00:31.381Z,9.80
2018-11-02T06:01:31.434Z,9.79
2018-11-02T06:02:31.316Z,9.79
2018-11-02T06:03:31.332Z,9.79
2018-11-02T06:04:31.299Z,9.77
2018-11-02T06:05:31.337Z,9.76
2018-11-02T06:06:31.277Z,9.76
2018-11-02T06:07:31.289Z,9.80
2018-11-02T06:08:31.265Z,9.77
2018-11-02T06:09:31.260Z,9.76
2018-11-02T06:10:31.242Z,9.79
2018-11-02T06:11:31.241Z,9.76
2018-11-02T06:12:31.229Z,9.73
2018-11-02T06:13:31.308Z,9.74
2018-11-02T06:14:31.202Z,9.77
2018-11-02T06:15:31.228Z,9.72
2018-11-02T06:16:31.225Z,9.79
2018-11-02T06:17:32.106Z,9.69
2018-11-02T06:18:31.194Z,9.72
2018-11-02T06:19:31.163Z,9.76
2018-11-02T06:20:31.167Z,9.80
2018-11-02T06:21:31.146Z,9.69
2018-11-02T06:22:31.171Z,9.69
2018-11-02T06:23:31.147Z,9.74
2018-11-02T06:24:31.122Z,9.72
2018-11-02T06:25:31.615Z,9.68
2018-11-02T06:26:31.110Z,9.72
2018-11-02T06:27:31.100Z,9.69
2018-11-02T06:28:31.086Z,9.68
2018-11-02T06:29:31.118Z,9.66
2018-11-02T06:30:31.137Z,9.69
2018-11-02T06:31:31.067Z,9.66
2018-11-02T06:32:31.104Z,9.59
2018-11-02T06:33:31.049Z,9.68
2018-11-02T06:34:31.031Z,9.73
2018-11-02T06:35:31.027Z,9.69
2018-11-02T06:36:31.011Z,9.77
2018-11-02T06:37:31.018Z,9.64
2018-11-02T06:38:31.055Z,9.72
2018-11-02T06:39:30.984Z,9.61
2018-11-02T06:40:30.974Z,9.68
2018-11-02T06:41:30.967Z,9.72
2018-11-02T06:42:30.961Z,9.72
2018-11-02T06:43:30.950Z,9.69
2018-11-02T06:44:30.939Z,9.62
2018-11-02T06:45:30.925Z,9.72
2018-11-02T06:46:30.927Z,9.73
2018-11-02T06:47:30.912Z,9.66
2018-11-02T06:48:30.935Z,9.66
2018-11-02T06:49:30.888Z,9.68
2018-11-02T06:50:30.933Z,9.68
2018-11-02T06:51:30.906Z,9.76
2018-11-02T06:52:30.878Z,9.73
2018-11-02T06:53:30.857Z,9.73
2018-11-02T06:54:30.874Z,9.76
2018-11-02T06:55:30.862Z,9.68
2018-11-02T06:56:30.867Z,9.68
2018-11-02T06:57:30.845Z,9.66
2018-11-02T06:58:30.810Z,9.65
2018-11-02T06:59:30.924Z,9.66
2018-11-02T07:00:30.876Z,9.62
2018-11-02T07:01:30.797Z,9.59
2018-11-02T07:02:30.781Z,9.68
2018-11-02T07:03:30.805Z,9.61
2018-11-02T07:04:30.759Z,9.66
2018-11-02T07:05:30.747Z,9.55
2018-11-02T07:06:30.756Z,9.66
2018-11-02T07:07:30.850Z,9.68
2018-11-02T07:08:30.827Z,9.66
2018-11-02T07:09:30.723Z,9.66
2018-11-02T07:10:30.699Z,9.68
2018-11-02T07:11:30.695Z,9.64
2018-11-02T07:12:30.681Z,9.66
2018-11-02T07:13:30.696Z,9.64
2018-11-02T07:14:30.681Z,9.65
2018-11-02T07:15:30.658Z,9.66
2018-11-02T07:16:30.713Z,9.64
2018-11-02T07:17:30.639Z,9.73
2018-11-02T07:18:30.632Z,9.66
2018-11-02T07:19:30.641Z,9.66
2018-11-02T07:20:30.686Z,9.65
2018-11-02T07:21:30.601Z,9.74
2018-11-02T07:22:30.626Z,9.73
2018-11-02T07:23:30.582Z,9.73
2018-11-02T07:24:30.589Z,9.73
2018-11-02T07:25:30.562Z,9.77
2018-11-02T07:26:30.561Z,9.69
2018-11-02T07:27:30.558Z,9.72
2018-11-02T07:28:30.783Z,9.66
2018-11-02T07:29:30.540Z,9.68
2018-11-02T07:30:30.530Z,9.68
2018-11-02T07:31:31.145Z,9.73
2018-11-02T07:32:30.518Z,9.74
2018-11-02T07:33:30.503Z,9.72
2018-11-02T07:34:30.592Z,9.76
2018-11-02T07:35:30.478Z,9.66
2018-11-02T07:36:30.494Z,9.74
2018-11-02T07:37:30.467Z,9.72
2018-11-02T07:38:30.461Z,9.76
2018-11-02T07:39:30.446Z,9.66
2018-11-02T07:40:30.455Z,9.72
2018-11-02T07:41:30.468Z,9.73
2018-11-02T07:42:30.430Z,9.69
2018-11-02T07:43:30.429Z,9.74
2018-11-02T07:44:30.395Z,9.64
2018-11-02T07:45:31.140Z,9.65
2018-11-02T07:46:30.396Z,9.69
2018-11-02T07:47:31.191Z,9.66
2018-11-02T07:48:30.372Z,9.74
2018-11-02T07:49:30.423Z,9.76
2018-11-02T07:50:30.340Z,9.73
2018-11-02T07:51:30.331Z,9.76
2018-11-02T07:52:30.330Z,9.73
2018-11-02T07:53:30.316Z,9.74
2018-11-02T07:54:30.347Z,9.77
2018-11-02T07:55:30.415Z,9.74
2018-11-02T07:56:30.295Z,9.73
2018-11-02T07:57:30.276Z,9.72
2018-11-02T07:58:30.273Z,9.68
2018-11-02T07:59:30.270Z,9.74
2018-11-02T08:00:30.272Z,9.76
2018-11-02T08:01:30.248Z,9.77
2018-11-02T08:02:30.236Z,9.80
2018-11-02T08:03:30.223Z,9.76
2018-11-02T08:04:30.211Z,9.79
2018-11-02T08:05:30.213Z,9.84
2018-11-02T08:06:30.193Z,9.83
2018-11-02T08:07:30.195Z,9.94
2018-11-02T08:08:30.178Z,9.80
2018-11-02T08:09:30.173Z,9.87
2018-11-02T08:10:30.159Z,9.89
2018-11-02T08:11:30.237Z,9.83
2018-11-02T08:12:30.141Z,9.95
2018-11-02T08:13:30.135Z,9.86
2018-11-02T08:14:30.127Z,9.94
2018-11-02T08:15:30.115Z,9.97
2018-11-02T08:16:30.111Z,9.95
2018-11-02T08:17:30.161Z,9.95
2018-11-02T08:18:30.098Z,9.84
2018-11-02T08:19:30.651Z,10.01
2018-11-02T08:20:30.077Z,9.97
2018-11-02T08:21:30.065Z,9.91
2018-11-02T08:22:30.060Z,9.97
2018-11-02T08:23:30.049Z,9.94
2018-11-02T08:24:30.049Z,9.94
2018-11-02T08:25:30.030Z,9.99
2018-11-02T08:26:30.026Z,9.95
2018-11-02T08:27:30.012Z,9.99
2018-11-02T08:28:30.004Z,9.94
2018-11-02T08:29:29.995Z,9.98
2018-11-02T08:30:29.987Z,10.02
2018-11-02T08:31:29.982Z,10.04
2018-11-02T08:32:29.973Z,10.07
2018-11-02T08:33:29.964Z,9.94
2018-11-02T08:34:29.961Z,10.02
2018-11-02T08:35:29.945Z,10.01
2018-11-02T08:36:30.129Z,10.13
2018-11-02T08:37:29.924Z,10.05
2018-11-02T08:38:29.927Z,10.19
2018-11-02T08:39:29.916Z,10.10
2018-11-02T08:40:29.936Z,10.07
2018-11-02T08:41:29.894Z,10.12
2018-11-02T08:42:29.886Z,10.12
2018-11-02T08:43:29.885Z,10.12
2018-11-02T08:44:29.876Z,10.17
2018-11-02T08:45:29.880Z,10.15
2018-11-02T08:46:29.907Z,10.09
2018-11-02T08:47:29.845Z,10.16
2018-11-02T08:48:29.845Z,10.17
2018-11-02T08:49:29.825Z,10.07
2018-11-02T08:50:29.816Z,10.12
2018-11-02T08:51:29.807Z,10.04
2018-11-02T08:52:29.807Z,9.95
2018-11-02T08:53:29.790Z,9.98
2018-11-02T08:54:29.786Z,9.94
2018-11-02T08:55:29.780Z,10.09
2018-11-02T08:56:29.770Z,9.99
2018-11-02T08:57:29.756Z,10.02
2018-11-02T08:58:29.945Z,10.05
2018-11-02T08:59:29.932Z,10.07
2018-11-02T09:00:29.753Z,10.02
2018-11-02T09:01:29.724Z,10.13
2018-11-02T09:02:29.721Z,10.07
2018-11-02T09:03:29.709Z,10.12
2018-11-02T09:04:29.697Z,10.12
2018-11-02T09:05:29.695Z,10.17
2018-11-02T09:06:29.687Z,10.15
2018-11-02T09:07:29.672Z,10.12
2018-11-02T09:08:29.680Z,10.13
2018-11-02T09:09:29.659Z,10.10
2018-11-02T09:10:29.656Z,10.17
2018-11-02T09:11:29.639Z,10.15
2018-11-02T09:12:29.630Z,10.17
2018-11-02T09:13:29.630Z,10.16
2018-11-02T09:14:29.616Z,10.13
2018-11-02T09:15:29.611Z,10.10
2018-11-02T09:16:29.598Z,10.22
2018-11-02T09:17:29.595Z,10.31
2018-11-02T09:18:29.688Z,10.31
2018-11-02T09:19:29.678Z,10.19
2018-11-02T09:20:29.575Z,10.25
2018-11-02T09:21:29.874Z,10.22
2018-11-02T09:22:29.564Z,10.28
2018-11-02T09:23:29.554Z,10.33
2018-11-02T09:24:29.551Z,10.25
2018-11-02T09:25:29.542Z,10.20
2018-11-02T09:26:29.520Z,10.25
2018-11-02T09:27:29.531Z,10.26
2018-11-02T09:28:29.509Z,10.26
2018-11-02T09:29:29.505Z,10.31
2018-11-02T09:30:29.496Z,10.31
2018-11-02T09:31:29.479Z,10.31
2018-11-02T09:32:29.472Z,10.41
2018-11-02T09:33:29.473Z,10.25
2018-11-02T09:34:29.488Z,10.33
2018-11-02T09:35:29.454Z,10.40
2018-11-02T09:36:29.441Z,10.49
2018-11-02T09:37:29.434Z,10.60
2018-11-02T09:38:29.415Z,10.57
2018-11-02T09:39:29.419Z,10.74
2018-11-02T09:40:29.494Z,10.75
2018-11-02T09:41:29.398Z,10.82
2018-11-02T09:42:29.481Z,10.84
2018-11-02T09:43:29.385Z,10.86
2018-11-02T09:44:29.492Z,10.82
2018-11-02T09:45:29.364Z,10.87
2018-11-02T09:46:29.368Z,10.89
2018-11-02T09:47:29.351Z,10.82
2018-11-02T09:48:29.343Z,10.87
2018-11-02T09:49:29.347Z,10.84
2018-11-02T09:50:29.332Z,10.78
2018-11-02T09:51:29.399Z,10.78
2018-11-02T09:52:29.319Z,10.79
2018-11-02T09:53:29.309Z,10.82
2018-11-02T09:54:29.299Z,10.76
2018-11-02T09:55:29.305Z,10.81
2018-11-02T09:56:29.288Z,10.87
2018-11-02T09:57:29.305Z,10.78
2018-11-02T09:58:29.273Z,10.78
2018-11-02T09:59:29.266Z,10.81
2018-11-02T10:00:29.254Z,10.75
2018-11-02T10:01:29.250Z,10.81
2018-11-02T10:02:29.260Z,10.79
2018-11-02T10:03:29.234Z,10.76
2018-11-02T10:04:29.228Z,10.69
2018-11-02T10:05:29.218Z,10.78
2018-11-02T10:06:29.208Z,10.78
2018-11-02T10:07:29.200Z,10.74
2018-11-02T10:08:29.212Z,10.81
2018-11-02T10:09:29.191Z,10.82
2018-11-02T10:10:29.183Z,10.81
2018-11-02T10:11:29.172Z,10.68
2018-11-02T10:12:29.166Z,10.71
2018-11-02T10:13:29.162Z,10.57
2018-11-02T10:14:29.148Z,10.54
2018-11-02T10:15:29.140Z,10.61
2018-11-02T10:16:29.135Z,10.61
2018-11-02T10:17:29.148Z,10.53
2018-11-02T10:18:29.117Z,10.60
2018-11-02T10:19:29.118Z,10.61
2018-11-02T10:20:29.105Z,10.61
2018-11-02T10:21:29.096Z,10.53
2018-11-02T10:22:29.089Z,10.53
2018-11-02T10:23:29.092Z,10.61
2018-11-02T10:24:29.101Z,10.61
2018-11-02T10:25:29.064Z,10.59
2018-11-02T10:26:29.066Z,10.57
2018-11-02T10:27:29.050Z,10.63
2018-11-02T10:28:29.040Z,10.60
2018-11-02T10:29:29.029Z,10.54
2018-11-02T10:30:29.047Z,10.56
2018-11-02T10:31:29.017Z,10.54
2018-11-02T10:32:29.008Z,10.51
2018-11-02T10:33:29.007Z,10.46
2018-11-02T10:34:28.995Z,10.49
2018-11-02T10:35:28.992Z,10.56
2018-11-02T10:36:28.974Z,10.42
2018-11-02T10:37:28.970Z,10.54
2018-11-02T10:38:28.960Z,10.56
2018-11-02T10:39:29.025Z,10.64
2018-11-02T10:40:28.948Z,10.56
2018-11-02T10:41:28.939Z,10.51
2018-11-02T10:42:28.931Z,10.59
2018-11-02T10:43:28.928Z,10.60
2018-11-02T10:44:28.984Z,10.61
2018-11-02T10:45:28.926Z,10.60
2018-11-02T10:46:28.902Z,10.61
2018-11-02T10:47:28.894Z,10.59
2018-11-02T10:48:28.890Z,10.57
2018-11-02T10:49:28.911Z,10.60
2018-11-02T10:50:28.866Z,10.61
2018-11-02T10:51:28.860Z,10.64
2018-11-02T10:52:28.850Z,10.44
2018-11-02T10:53:28.844Z,10.41
2018-11-02T10:54:28.856Z,10.46
2018-11-02T10:55:28.883Z,10.48
2018-11-02T10:56:28.886Z,10.46
2018-11-02T10:57:28.808Z,10.48
2018-11-02T10:58:28.803Z,10.53
2018-11-02T10:59:28.810Z,10.53
2018-11-02T11:00:28.795Z,10.56
2018-11-02T11:01:28.842Z,10.53
2018-11-02T11:02:28.771Z,10.64
2018-11-02T11:03:28.766Z,10.64
2018-11-02T11:04:28.755Z,10.64
2018-11-02T11:05:28.815Z,10.67
2018-11-02T11:06:28.740Z,10.68
2018-11-02T11:07:28.740Z,10.54
2018-11-02T11:08:28.726Z,10.59
2018-11-02T11:09:28.716Z,10.61
2018-11-02T11:10:28.850Z,10.63
2018-11-02T11:11:29.335Z,10.60
2018-11-02T11:12:28.831Z,10.60
2018-11-02T11:13:29.054Z,10.61
2018-11-02T11:14:28.678Z,10.59
2018-11-02T11:15:28.676Z,10.54
2018-11-02T11:16:28.664Z,10.51
2018-11-02T11:17:28.655Z,10.48
2018-11-02T11:18:28.644Z,10.48
2018-11-02T11:19:28.643Z,10.44
2018-11-02T11:20:28.667Z,10.41
2018-11-02T11:21:28.634Z,10.48
2018-11-02T11:22:28.618Z,10.48
2018-11-02T11:23:28.614Z,10.48
2018-11-02T11:24:28.602Z,10.44
2018-11-02T11:25:28.589Z,10.51
2018-11-02T11:26:28.601Z,10.49
2018-11-02T11:27:28.578Z,10.48
2018-11-02T11:28:28.567Z,10.53
2018-11-02T11:29:28.766Z,10.48
2018-11-02T11:30:28.558Z,10.46
2018-11-02T11:31:28.543Z,10.46
2018-11-02T11:32:28.537Z,10.42
2018-11-02T11:33:28.528Z,10.35
2018-11-02T11:34:28.518Z,10.40
2018-11-02T11:35:28.515Z,10.41
2018-11-02T11:36:28.511Z,10.37
2018-11-02T11:37:28.501Z,10.42
2018-11-02T11:38:28.485Z,10.35
2018-11-02T11:39:28.500Z,10.31
2018-11-02T11:40:28.481Z,10.42
2018-11-02T11:41:28.464Z,10.37
2018-11-02T11:42:28.462Z,10.37
2018-11-02T11:43:28.451Z,10.37
2018-11-02T11:44:28.446Z,10.41
2018-11-02T11:45:28.432Z,10.42
2018-11-02T11:46:28.422Z,10.41
2018-11-02T11:47:28.445Z,10.42
2018-11-02T11:48:28.488Z,10.49
2018-11-02T11:49:28.403Z,10.57
2018-11-02T11:50:28.397Z,10.56
2018-11-02T11:51:28.388Z,10.60
2018-11-02T11:52:28.385Z,10.68
2018-11-02T11:53:28.367Z,10.54
2018-11-02T11:54:28.382Z,10.63
2018-11-02T11:55:28.357Z,10.72
2018-11-02T11:56:28.351Z,10.69
2018-11-02T11:57:28.341Z,10.68
2018-11-02T11:58:28.336Z,10.67
2018-11-02T11:59:28.322Z,10.71
2018-11-02T12:00:28.313Z,10.64
2018-11-02T12:01:28.316Z,10.71
2018-11-02T12:02:28.376Z,10.64
2018-11-02T12:03:28.300Z,10.69
2018-11-02T12:04:28.331Z,10.69
2018-11-02T12:05:28.286Z,10.69
2018-11-02T12:06:28.269Z,10.64
2018-11-02T12:07:28.284Z,10.72
2018-11-02T12:08:28.260Z,10.69
2018-11-02T12:09:28.248Z,10.76
2018-11-02T12:10:28.278Z,10.64
2018-11-02T12:11:28.241Z,10.67
2018-11-02T12:12:28.226Z,10.64
2018-11-02T12:13:28.211Z,10.74
2018-11-02T12:14:28.218Z,10.63
2018-11-02T12:15:28.213Z,10.68
2018-11-02T12:16:28.191Z,10.74
2018-11-02T12:17:28.186Z,10.68
2018-11-02T12:18:28.183Z,10.68
2018-11-02T12:19:28.172Z,10.71
2018-11-02T12:20:28.163Z,10.64
2018-11-02T12:21:28.154Z,10.69
2018-11-02T12:22:28.167Z,10.76
2018-11-02T12:23:28.243Z,10.74
2018-11-02T12:24:28.133Z,10.81
2018-11-02T12:25:28.125Z,10.81
2018-11-02T12:26:28.117Z,10.82
2018-11-02T12:27:28.108Z,10.79
2018-11-02T12:28:28.104Z,10.93
2018-11-02T12:29:28.107Z,10.97
2018-11-02T12:30:28.119Z,10.93
2018-11-02T12:31:28.084Z,11.08
2018-11-02T12:32:28.095Z,11.04
2018-11-02T12:33:28.067Z,11.10
2018-11-02T12:34:28.055Z,11.15
2018-11-02T12:35:28.056Z,11.32
2018-11-02T12:36:28.041Z,11.33
2018-11-02T12:37:28.045Z,11.52
2018-11-02T12:38:28.049Z,11.69
2018-11-02T12:39:28.029Z,11.80
2018-11-02T12:40:28.067Z,11.80
2018-11-02T12:41:28.029Z,11.99
2018-11-02T12:42:28.021Z,12.17
2018-11-02T12:43:28.089Z,12.18
2018-11-02T12:44:28.002Z,12.27
2018-11-02T12:45:27.998Z,12.29
2018-11-02T12:46:27.988Z,12.31
2018-11-02T12:47:27.986Z,12.39
2018-11-02T12:48:28.061Z,12.46
2018-11-02T12:49:28.376Z,12.49
2018-11-02T12:50:28.115Z,12.49
2018-11-02T12:51:27.957Z,12.54
2018-11-02T12:52:27.966Z,12.64
2018-11-02T12:53:27.953Z,12.73
2018-11-02T12:54:27.960Z,12.61
2018-11-02T12:55:27.942Z,12.82
2018-11-02T12:56:27.945Z,12.72
2018-11-02T12:57:28.006Z,12.75
2018-11-02T12:58:27.948Z,12.70